createdAt,value
2022-11-17T00:01:36.976Z,3.33
2022-11-17T00:04:04.245Z,3.92
2022-11-17T00:06:34.076Z,3.53
2022-11-17T00:09:07.872Z,3.72
2022-11-17T00:11:55.130Z,3.40
2022-11-17T00:14:34.573Z,3.40
2022-11-17T00:17:02.371Z,3.80
2022-11-17T00:19:48.691Z,3.70
2022-11-17T00:22:16.457Z,4.03
2022-11-17T00:24:43.754Z,3.72
2022-11-17T00:27:11.370Z,4.03
2022-11-17T00:29:39.392Z,4.15
2022-11-17T00:32:25.772Z,4.82
2022-11-17T00:34:52.900Z,4.47
2022-11-17T00:37:20.008Z,3.85
2022-11-17T00:39:47.707Z,4.00
2022-11-17T00:42:15.060Z,4.03
2022-11-17T00:44:45.529Z,4.03
2022-11-17T00:47:12.638Z,4.00
2022-11-17T00:49:39.707Z,4.13
2022-11-17T00:52:06.732Z,4.10
2022-11-17T00:54:34.139Z,4.15
2022-11-17T00:57:04.281Z,4.05
2022-11-17T00:59:34.238Z,3.88
2022-11-17T01:02:04.455Z,3.67
2022-11-17T01:04:31.629Z,4.25
2022-11-17T01:06:59.190Z,4.50
2022-11-17T01:09:27.106Z,4.30
2022-11-17T01:11:54.239Z,4.50
2022-11-17T01:14:23.342Z,4.47
2022-11-17T01:16:50.745Z,4.00
2022-11-17T01:19:21.787Z,4.28
2022-11-17T01:21:49.640Z,4.38
2022-11-17T01:24:18.309Z,4.38
2022-11-17T01:26:46.127Z,4.55
2022-11-17T01:29:14.528Z,4.30
2022-11-17T01:31:45.634Z,4.40
2022-11-17T01:34:13.088Z,4.95
2022-11-17T01:37:01.447Z,4.15
2022-11-17T01:39:29.709Z,3.90
2022-11-17T01:41:57.231Z,4.20
2022-11-17T01:44:36.763Z,4.10
2022-11-17T01:47:05.088Z,3.80
2022-11-17T01:49:33.768Z,3.65
2022-11-17T01:52:03.064Z,4.07
2022-11-17T01:54:31.135Z,3.28
2022-11-17T01:57:01.043Z,2.95
2022-11-17T01:59:40.685Z,3.63
2022-11-17T02:02:08.690Z,2.95
2022-11-17T02:04:44.838Z,3.03
2022-11-17T02:07:20.989Z,2.97
2022-11-17T02:09:48.378Z,2.88
2022-11-17T02:12:16.468Z,2.60
2022-11-17T02:14:43.863Z,2.40
2022-11-17T02:17:14.504Z,2.42
2022-11-17T02:19:43.410Z,2.50
2022-11-17T02:22:10.477Z,2.45
2022-11-17T02:24:52.890Z,2.45
2022-11-17T02:27:22.635Z,2.53
2022-11-17T02:29:55.747Z,2.05
2022-11-17T02:32:22.761Z,2.30
2022-11-17T02:35:10.373Z,2.55
2022-11-17T02:37:37.473Z,2.70
2022-11-17T02:40:07.662Z,2.45
2022-11-17T02:42:59.612Z,2.38
2022-11-17T02:45:31.158Z,2.45
2022-11-17T02:48:05.436Z,2.50
2022-11-17T02:50:36.334Z,3.00
2022-11-17T02:53:03.990Z,2.42
2022-11-17T02:55:33.154Z,2.40
2022-11-17T02:58:02.914Z,2.42
2022-11-17T03:00:34.701Z,2.13
2022-11-17T03:03:11.058Z,2.22
2022-11-17T03:05:53.654Z,2.30
2022-11-17T03:08:30.111Z,2.60
2022-11-17T03:11:02.952Z,2.30
2022-11-17T03:13:44.794Z,2.40
2022-11-17T03:16:15.329Z,2.40
2022-11-17T03:18:48.660Z,2.40
2022-11-17T03:23:45.964Z,1.85
2022-11-17T03:26:15.018Z,2.47
2022-11-17T03:28:43.438Z,2.10
2022-11-17T03:31:11.425Z,2.25
2022-11-17T03:33:39.807Z,2.03
2022-11-17T03:36:11.459Z,2.20
2022-11-17T03:38:42.642Z,2.30
2022-11-17T03:41:11.691Z,2.60
2022-11-17T03:43:39.465Z,2.60
2022-11-17T03:46:17.571Z,2.55
2022-11-17T03:48:51.541Z,2.17
2022-11-17T03:51:29.492Z,2.30
2022-11-17T03:53:56.690Z,2.10
2022-11-17T03:56:23.783Z,2.15
2022-11-17T03:58:55.751Z,2.20
2022-11-17T04:01:23.430Z,2.20
2022-11-17T04:03:50.513Z,2.00
2022-11-17T04:06:17.612Z,2.10
2022-11-17T04:08:44.705Z,2.00
2022-11-17T04:11:32.487Z,1.83
2022-11-17T04:14:18.400Z,1.80
2022-11-17T04:16:45.613Z,1.80
2022-11-17T04:19:12.702Z,2.13
2022-11-17T04:21:39.906Z,2.10
2022-11-17T04:24:07.325Z,2.00
2022-11-17T04:26:53.488Z,1.90
2022-11-17T04:29:20.504Z,1.95
2022-11-17T04:31:47.577Z,1.60
2022-11-17T04:34:15.247Z,2.03
2022-11-17T04:36:46.701Z,2.22
2022-11-17T04:39:15.106Z,2.00
2022-11-17T04:41:55.004Z,2.10
2022-11-17T04:44:23.480Z,1.77
2022-11-17T04:46:50.811Z,2.20
2022-11-17T04:49:19.255Z,1.85
2022-11-17T04:51:46.600Z,1.80
2022-11-17T04:54:15.470Z,1.92
2022-11-17T04:56:42.659Z,1.95
2022-11-17T04:59:10.502Z,1.92
2022-11-17T05:01:37.874Z,1.60
2022-11-17T05:04:09.384Z,1.90
2022-11-17T05:06:38.299Z,1.60
2022-11-17T05:09:07.503Z,1.92
2022-11-17T05:11:53.795Z,1.67
2022-11-17T05:14:21.870Z,1.80
2022-11-17T05:17:09.973Z,1.60
2022-11-17T05:19:48.436Z,1.60
2022-11-17T05:22:38.316Z,1.90
2022-11-17T05:25:06.403Z,1.63
2022-11-17T05:27:34.448Z,1.90
2022-11-17T05:30:02.216Z,1.90
2022-11-17T05:32:29.403Z,2.20
2022-11-17T05:34:56.575Z,2.55
2022-11-17T05:37:23.956Z,2.45
2022-11-17T05:39:51.466Z,2.20
2022-11-17T05:42:18.802Z,2.10
2022-11-17T05:44:49.029Z,2.00
2022-11-17T05:47:16.736Z,1.90
2022-11-17T05:49:44.314Z,2.10
2022-11-17T05:52:11.508Z,2.20
2022-11-17T05:54:38.623Z,3.05
2022-11-17T05:57:09.764Z,2.03
2022-11-17T05:59:36.913Z,2.03
2022-11-17T06:02:07.693Z,2.10
2022-11-17T06:04:35.628Z,2.00
2022-11-17T06:07:03.442Z,2.20
2022-11-17T06:09:32.929Z,1.98
2022-11-17T06:12:06.284Z,2.10
2022-11-17T06:14:34.610Z,2.20
2022-11-17T06:17:08.221Z,2.65
2022-11-17T06:19:39.353Z,1.92
2022-11-17T06:22:13.920Z,2.15
2022-11-17T06:24:42.407Z,2.13
2022-11-17T06:27:10.822Z,1.80
2022-11-17T06:29:43.596Z,1.73
2022-11-17T06:34:38.799Z,2.03
2022-11-17T06:37:06.258Z,1.90
2022-11-17T06:39:36.519Z,1.95
2022-11-17T06:42:06.154Z,2.25
2022-11-17T06:44:33.245Z,1.60
2022-11-17T06:47:00.553Z,2.03
2022-11-17T06:49:27.971Z,1.70
2022-11-17T06:51:55.334Z,1.77
2022-11-17T06:54:23.269Z,1.70
2022-11-17T06:56:51.594Z,1.25
2022-11-17T06:59:18.932Z,1.63
2022-11-17T07:01:46.132Z,1.50
2022-11-17T07:04:13.278Z,1.95
2022-11-17T07:06:40.592Z,1.80
2022-11-17T07:09:07.884Z,1.88
2022-11-17T07:11:36.595Z,1.75
2022-11-17T07:14:06.831Z,1.52
2022-11-17T07:16:34.367Z,1.92
2022-11-17T07:19:05.359Z,1.60
2022-11-17T07:21:56.369Z,1.77
2022-11-17T07:24:27.334Z,1.83
2022-11-17T07:26:54.428Z,1.75
2022-11-17T07:29:21.933Z,1.70
2022-11-17T07:31:52.360Z,1.40
2022-11-17T07:34:19.916Z,1.58
2022-11-17T07:36:47.354Z,1.60
2022-11-17T07:39:21.027Z,1.63
2022-11-17T07:41:49.226Z,1.98
2022-11-17T07:44:16.613Z,1.60
2022-11-17T07:46:44.755Z,1.52
2022-11-17T07:49:12.153Z,1.27
2022-11-17T07:51:39.527Z,1.40
2022-11-17T07:54:06.659Z,1.73
2022-11-17T07:56:34.782Z,1.70
2022-11-17T07:59:04.742Z,1.33
2022-11-17T08:01:33.346Z,1.27
2022-11-17T08:04:03.244Z,1.00
2022-11-17T08:06:30.680Z,1.10
2022-11-17T08:08:58.240Z,1.15
2022-11-17T08:11:28.065Z,1.20
2022-11-17T08:13:55.544Z,1.52
2022-11-17T08:16:22.657Z,1.13
2022-11-17T08:18:52.542Z,1.38
2022-11-17T08:21:21.145Z,1.55
2022-11-17T08:23:52.713Z,1.05
2022-11-17T08:26:28.041Z,1.13
2022-11-17T08:28:58.935Z,1.60
2022-11-17T08:31:29.501Z,1.10
2022-11-17T08:33:57.170Z,1.45
2022-11-17T08:36:26.468Z,1.20
2022-11-17T08:38:54.236Z,1.45
2022-11-17T08:41:21.999Z,1.33
2022-11-17T08:43:51.806Z,1.30
2022-11-17T08:46:19.498Z,1.30
2022-11-17T08:48:55.471Z,1.40
2022-11-17T08:51:25.154Z,1.40
2022-11-17T08:53:55.043Z,1.77
2022-11-17T08:56:29.834Z,1.20
2022-11-17T08:58:57.739Z,1.42
2022-11-17T09:01:27.766Z,1.52
2022-11-17T09:03:55.124Z,1.50
2022-11-17T09:06:22.770Z,1.70
2022-11-17T09:08:50.450Z,1.30
2022-11-17T09:11:18.433Z,1.80
2022-11-17T09:13:47.086Z,1.33
2022-11-17T09:16:18.166Z,1.40
2022-11-17T09:18:45.804Z,1.45
2022-11-17T09:21:17.740Z,1.45
2022-11-17T09:23:45.562Z,1.50
2022-11-17T09:26:14.161Z,1.63
2022-11-17T09:28:42.062Z,1.23
2022-11-17T09:31:10.521Z,1.50
2022-11-17T09:33:38.115Z,1.25
2022-11-17T09:36:07.359Z,1.33
2022-11-17T09:38:35.138Z,1.20
2022-11-17T09:41:10.271Z,1.35
2022-11-17T09:43:39.732Z,1.40
2022-11-17T09:46:11.491Z,1.50
2022-11-17T09:49:04.620Z,3.60
2022-11-17T09:51:36.498Z,2.10
2022-11-17T09:54:36.370Z,1.60
2022-11-17T09:57:04.454Z,1.50
2022-11-17T09:59:33.208Z,1.30
2022-11-17T10:02:01.162Z,1.63
2022-11-17T10:04:30.553Z,1.30
2022-11-17T10:06:58.860Z,1.48
2022-11-17T10:09:35.554Z,1.40
2022-11-17T10:12:20.133Z,1.73
2022-11-17T10:14:49.492Z,1.60
2022-11-17T10:17:18.670Z,1.60
2022-11-17T10:19:46.341Z,1.50
2022-11-17T10:22:26.799Z,1.20
2022-11-17T10:24:59.000Z,1.20
2022-11-17T10:27:30.569Z,1.33
2022-11-17T10:30:16.028Z,1.23
2022-11-17T10:32:53.618Z,1.45
2022-11-17T10:35:23.194Z,1.48
2022-11-17T10:37:56.639Z,1.25
2022-11-17T10:40:28.369Z,2.05
2022-11-17T10:43:04.336Z,1.20
2022-11-17T10:45:33.345Z,1.52
2022-11-17T10:48:30.154Z,1.40
2022-11-17T10:50:57.301Z,1.95
2022-11-17T10:53:32.195Z,1.75
2022-11-17T10:56:04.718Z,1.65
2022-11-17T10:58:33.868Z,1.77
2022-11-17T11:01:06.246Z,1.35
2022-11-17T11:03:36.751Z,1.23
2022-11-17T11:06:14.547Z,1.30
2022-11-17T11:08:44.442Z,1.45
2022-11-17T11:11:37.933Z,1.20
2022-11-17T11:14:13.651Z,1.52
2022-11-17T11:16:46.562Z,1.50
2022-11-17T11:19:16.345Z,1.42
2022-11-17T11:21:50.655Z,1.40
2022-11-17T11:24:24.276Z,1.25
2022-11-17T11:26:52.020Z,1.13
2022-11-17T11:29:38.027Z,1.50
2022-11-17T11:32:15.309Z,1.50
2022-11-17T11:35:05.271Z,1.50
2022-11-17T11:37:37.931Z,1.42
2022-11-17T11:40:16.227Z,1.48
2022-11-17T11:42:51.538Z,1.33
2022-11-17T11:45:32.450Z,1.40
2022-11-17T11:48:15.344Z,1.30
2022-11-17T11:50:48.811Z,1.80
2022-11-17T11:53:28.387Z,1.13
2022-11-17T11:56:20.648Z,1.33
2022-11-17T11:58:54.639Z,1.63
2022-11-17T12:01:23.424Z,1.45
2022-11-17T12:03:55.063Z,1.90
2022-11-17T12:06:40.689Z,1.30
2022-11-17T12:09:08.916Z,1.17
2022-11-17T12:11:58.031Z,1.40
2022-11-17T12:14:28.241Z,1.50
2022-11-17T12:17:06.115Z,1.80
2022-11-17T12:19:45.555Z,1.30
2022-11-17T12:22:16.087Z,1.38
2022-11-17T12:24:44.225Z,1.85
2022-11-17T12:27:30.478Z,1.60
2022-11-17T12:29:57.606Z,1.20
2022-11-17T12:32:44.050Z,1.05
2022-11-17T12:35:28.393Z,1.48
2022-11-17T12:38:17.650Z,1.35
2022-11-17T12:40:46.511Z,1.52
2022-11-17T12:43:19.999Z,1.20
2022-11-17T12:45:53.518Z,1.35
2022-11-17T12:51:16.451Z,1.65
2022-11-17T12:54:07.196Z,1.65
2022-11-17T12:56:56.492Z,1.50
2022-11-17T12:59:37.157Z,2.22
2022-11-17T13:02:23.200Z,2.15
2022-11-17T13:05:13.062Z,1.83
2022-11-17T13:07:40.371Z,1.50
2022-11-17T13:10:23.181Z,1.33
2022-11-17T13:12:56.370Z,1.30
2022-11-17T13:15:25.142Z,1.90
2022-11-17T13:17:58.020Z,1.83
2022-11-17T13:20:27.139Z,2.00
2022-11-17T13:23:14.769Z,1.30
2022-11-17T13:25:42.635Z,1.55
2022-11-17T13:28:33.919Z,1.45
2022-11-17T13:31:02.095Z,1.33
2022-11-17T13:33:32.312Z,1.48
2022-11-17T13:36:09.204Z,1.65
2022-11-17T13:38:36.381Z,1.65
2022-11-17T13:41:05.074Z,1.48
2022-11-17T13:43:38.207Z,1.70
2022-11-17T13:46:06.421Z,1.20
2022-11-17T13:48:34.281Z,2.15
2022-11-17T13:51:20.488Z,1.50
2022-11-17T13:53:51.037Z,1.77
2022-11-17T13:56:31.538Z,1.75
2022-11-17T13:59:04.102Z,1.80
2022-11-17T14:01:33.997Z,1.60
2022-11-17T14:04:22.114Z,2.00
2022-11-17T14:06:59.486Z,1.58
2022-11-17T14:09:35.544Z,2.33
2022-11-17T14:12:12.360Z,3.55
2022-11-17T14:14:39.674Z,2.10
2022-11-17T14:17:15.122Z,1.63
2022-11-17T14:19:44.464Z,1.50
2022-11-17T14:22:17.623Z,1.50
2022-11-17T14:24:51.865Z,1.70
2022-11-17T14:27:30.509Z,2.10
2022-11-17T14:29:57.759Z,1.70
2022-11-17T14:32:27.609Z,1.48
2022-11-17T14:34:58.203Z,2.00
2022-11-17T14:37:26.492Z,1.75
2022-11-17T14:39:53.744Z,1.30
2022-11-17T14:42:27.558Z,1.50
2022-11-17T14:44:56.311Z,1.75
2022-11-17T14:47:25.846Z,1.80
2022-11-17T14:49:59.632Z,1.55
2022-11-17T14:52:28.347Z,2.00
2022-11-17T14:54:55.973Z,1.83
2022-11-17T14:57:39.190Z,1.52
2022-11-17T15:00:08.778Z,1.60
2022-11-17T15:02:39.053Z,2.10
2022-11-17T15:05:07.323Z,2.13
2022-11-17T15:07:35.101Z,1.63
2022-11-17T15:10:08.974Z,1.33
2022-11-17T15:12:37.373Z,1.60
2022-11-17T15:15:05.146Z,1.20
2022-11-17T15:17:35.356Z,1.45
2022-11-17T15:20:03.289Z,1.20
2022-11-17T15:22:33.432Z,1.10
2022-11-17T15:25:00.785Z,1.40
2022-11-17T15:27:28.210Z,1.10
2022-11-17T15:29:58.128Z,1.00
2022-11-17T15:32:28.005Z,1.00
2022-11-17T15:34:55.040Z,1.27
2022-11-17T15:37:22.192Z,1.35
2022-11-17T15:39:49.427Z,1.25
2022-11-17T15:42:16.813Z,1.27
2022-11-17T15:44:44.102Z,1.20
2022-11-17T15:47:11.165Z,1.10
2022-11-17T15:49:38.183Z,1.40
2022-11-17T15:52:05.297Z,1.65
2022-11-17T15:54:35.564Z,1.13
2022-11-17T15:57:03.215Z,1.10
2022-11-17T15:59:30.754Z,1.00
2022-11-17T16:01:57.918Z,1.35
2022-11-17T16:04:25.192Z,1.30
2022-11-17T16:06:52.538Z,1.20
2022-11-17T16:09:20.999Z,1.20
2022-11-17T16:11:48.399Z,1.35
2022-11-17T16:14:16.344Z,1.20
2022-11-17T16:16:46.025Z,1.33
2022-11-17T16:19:13.861Z,1.40
2022-11-17T16:21:41.279Z,1.10
2022-11-17T16:24:11.418Z,1.20
2022-11-17T16:26:38.855Z,1.25
2022-11-17T16:29:08.328Z,1.60
2022-11-17T16:31:38.593Z,1.60
2022-11-17T16:34:07.117Z,1.33
2022-11-17T16:36:37.252Z,1.58
2022-11-17T16:39:08.681Z,1.60
2022-11-17T16:41:37.137Z,1.42
2022-11-17T16:44:07.810Z,1.33
2022-11-17T16:46:36.450Z,1.80
2022-11-17T16:49:05.462Z,1.60
2022-11-17T16:51:35.716Z,1.40
2022-11-17T16:54:04.457Z,1.58
2022-11-17T16:56:38.075Z,1.40
2022-11-17T16:59:06.009Z,1.20
2022-11-17T17:01:38.314Z,1.38
2022-11-17T17:04:08.781Z,1.88
2022-11-17T17:06:37.551Z,1.58
2022-11-17T17:09:06.436Z,1.50
2022-11-17T17:11:35.097Z,1.33
2022-11-17T17:14:04.830Z,1.65
2022-11-17T17:16:33.160Z,1.33
2022-11-17T17:19:02.207Z,2.10
2022-11-17T17:21:30.442Z,1.50
2022-11-17T17:23:58.312Z,1.30
2022-11-17T17:26:27.214Z,1.42
2022-11-17T17:28:55.752Z,1.60
2022-11-17T17:31:25.003Z,1.55
2022-11-17T17:33:52.478Z,1.30
2022-11-17T17:36:21.066Z,1.55
2022-11-17T17:38:54.922Z,2.17
2022-11-17T17:41:25.390Z,1.52
2022-11-17T17:44:03.523Z,1.55
2022-11-17T17:46:32.169Z,2.00
2022-11-17T17:48:59.634Z,2.47
2022-11-17T17:51:28.521Z,1.80
2022-11-17T17:53:58.055Z,1.90
2022-11-17T17:56:28.651Z,1.73
2022-11-17T17:58:57.323Z,1.58
2022-11-17T18:01:26.138Z,1.45
2022-11-17T18:03:54.735Z,1.50
2022-11-17T18:06:23.198Z,1.77
2022-11-17T18:08:50.652Z,1.60
2022-11-17T18:11:19.594Z,1.60
2022-11-17T18:13:48.521Z,1.50
2022-11-17T18:16:17.427Z,1.20
2022-11-17T18:18:47.542Z,1.77
2022-11-17T18:21:16.923Z,1.40
2022-11-17T18:23:44.493Z,1.63
2022-11-17T18:26:16.410Z,1.50
2022-11-17T18:28:44.629Z,1.30
2022-11-17T18:31:11.979Z,1.42
2022-11-17T18:33:39.600Z,1.70
2022-11-17T18:36:08.228Z,1.40
2022-11-17T18:38:36.428Z,1.20
2022-11-17T18:41:07.592Z,1.60
2022-11-17T18:43:34.817Z,1.33
2022-11-17T18:46:03.441Z,1.85
2022-11-17T18:48:34.338Z,1.27
2022-11-17T18:51:19.249Z,2.20
2022-11-17T18:53:48.213Z,1.40
2022-11-17T18:56:17.299Z,2.05
2022-11-17T18:58:45.248Z,1.83
2022-11-17T19:01:17.507Z,1.90
2022-11-17T19:03:45.851Z,1.70
2022-11-17T19:06:13.763Z,1.80
2022-11-17T19:08:44.325Z,1.33
2022-11-17T19:11:12.359Z,1.98
2022-11-17T19:13:40.673Z,1.65
2022-11-17T19:16:12.797Z,1.75
2022-11-17T19:18:40.786Z,1.95
2022-11-17T19:21:15.317Z,1.63
2022-11-17T19:23:48.018Z,1.80
2022-11-17T19:26:19.666Z,1.60
2022-11-17T19:28:46.907Z,1.80
2022-11-17T19:31:16.900Z,1.80
2022-11-17T19:33:44.870Z,2.17
2022-11-17T19:36:25.961Z,1.90
2022-11-17T19:38:54.585Z,1.90
2022-11-17T19:41:23.281Z,1.75
2022-11-17T19:43:53.599Z,1.90
2022-11-17T19:46:21.336Z,1.70
2022-11-17T19:48:48.800Z,2.60
2022-11-17T19:51:19.966Z,2.10
2022-11-17T19:53:51.808Z,2.22
2022-11-17T19:56:19.515Z,2.08
2022-11-17T19:58:46.877Z,1.80
2022-11-17T20:01:15.720Z,1.80
2022-11-17T20:03:43.793Z,2.30
2022-11-17T20:06:12.942Z,1.90
2022-11-17T20:08:40.756Z,1.92
2022-11-17T20:11:12.596Z,2.33
2022-11-17T20:13:40.055Z,1.70
2022-11-17T20:16:12.088Z,1.83
2022-11-17T20:18:39.576Z,2.10
2022-11-17T20:21:07.454Z,2.00
2022-11-17T20:23:35.568Z,2.13
2022-11-17T20:26:06.778Z,2.53
2022-11-17T20:28:34.828Z,2.20
2022-11-17T20:31:13.109Z,2.42
2022-11-17T20:33:41.203Z,2.17
2022-11-17T20:36:09.489Z,2.10
2022-11-17T20:38:37.006Z,2.22
2022-11-17T20:41:04.588Z,2.20
2022-11-17T20:43:32.984Z,2.22
2022-11-17T20:46:03.311Z,2.33
2022-11-17T20:48:34.708Z,2.60
2022-11-17T20:51:03.473Z,1.92
2022-11-17T20:53:32.753Z,2.30
2022-11-17T20:56:07.884Z,2.20
2022-11-17T20:58:42.703Z,2.08
2022-11-17T21:01:10.870Z,2.17
2022-11-17T21:03:38.761Z,2.25
2022-11-17T21:06:06.623Z,2.22
2022-11-17T21:08:35.012Z,2.50
2022-11-17T21:11:09.047Z,2.40
2022-11-17T21:13:37.243Z,2.10
2022-11-17T21:16:12.507Z,2.55
2022-11-17T21:18:40.534Z,2.28
2022-11-17T21:21:12.000Z,2.20
2022-11-17T21:23:40.631Z,2.20
2022-11-17T21:26:11.916Z,2.50
2022-11-17T21:28:39.648Z,2.60
2022-11-17T21:31:07.844Z,2.17
2022-11-17T21:33:35.692Z,2.42
2022-11-17T21:36:21.819Z,2.70
2022-11-17T21:38:48.960Z,2.58
2022-11-17T21:41:20.840Z,2.45
2022-11-17T21:43:49.691Z,2.92
2022-11-17T21:46:18.683Z,2.53
2022-11-17T21:48:51.093Z,2.50
2022-11-17T21:51:25.499Z,2.60
2022-11-17T21:53:57.548Z,2.60
2022-11-17T21:56:27.150Z,2.80
2022-11-17T21:59:11.068Z,2.60
2022-11-17T22:01:38.652Z,3.13
2022-11-17T22:04:06.072Z,3.10
2022-11-17T22:06:33.230Z,2.75
2022-11-17T22:09:03.456Z,2.47
2022-11-17T22:11:38.724Z,2.50
2022-11-17T22:14:16.411Z,2.80
2022-11-17T22:16:44.512Z,2.67
2022-11-17T22:21:55.005Z,2.78
2022-11-17T22:24:22.448Z,2.75
2022-11-17T22:26:51.618Z,2.90
2022-11-17T22:29:20.582Z,3.05
2022-11-17T22:31:48.848Z,2.78
2022-11-17T22:34:16.728Z,2.70
2022-11-17T22:36:43.817Z,2.50
2022-11-17T22:39:12.092Z,2.70
2022-11-17T22:41:41.384Z,2.80
2022-11-17T22:44:08.653Z,2.90
2022-11-17T22:46:39.718Z,2.70
2022-11-17T22:49:07.863Z,2.72
2022-11-17T22:51:53.755Z,2.55
2022-11-17T22:54:20.781Z,2.90
2022-11-17T22:56:48.060Z,2.75
2022-11-17T22:59:16.026Z,2.72
2022-11-17T23:01:43.619Z,2.75
2022-11-17T23:04:12.781Z,2.78
2022-11-17T23:06:40.060Z,2.85
2022-11-17T23:09:07.516Z,3.05
2022-11-17T23:11:37.957Z,3.05
2022-11-17T23:14:10.738Z,3.45
2022-11-17T23:16:39.435Z,2.83
2022-11-17T23:19:07.468Z,3.20
2022-11-17T23:21:34.653Z,2.95
2022-11-17T23:24:03.523Z,3.55
2022-11-17T23:26:33.191Z,2.88
2022-11-17T23:29:03.025Z,3.00
2022-11-17T23:31:31.977Z,3.28
2022-11-17T23:33:59.274Z,3.03
2022-11-17T23:36:26.417Z,3.40
2022-11-17T23:38:55.621Z,3.15
2022-11-17T23:41:22.698Z,3.72
2022-11-17T23:43:50.963Z,3.25
2022-11-17T23:46:19.346Z,3.22
2022-11-17T23:48:46.773Z,3.40
2022-11-17T23:51:18.537Z,3.25
2022-11-17T23:53:46.812Z,3.20
2022-11-17T23:56:15.385Z,3.40
2022-11-17T23:58:44.606Z,3.28
